Time;durP1;ratioP1;P1;durP2;ratioP2;P2;SDS_P1;SDS_P2;PMS_P1;PMS_P2;Temp;Humidity;BMP_temperature;BMP_pressure;BME280_temperature;BME280_humidity;BME280_pressure;Samples;Min_cycle;Max_cycle;Signal;HPM_P1;HPM_P2
2022/04/10 00:00:07;;;;;;;8.25;5.68;;;;;;;4.29;59.50;101077.47;690634;28;1210;-81
2022/04/10 00:00:57;;;;;;;8.10;5.90;;;;;;;4.27;59.15;101084.25;687370;28;869;-81
2022/04/10 00:01:17;;;;;;;8.75;5.80;;;;;;;4.19;59.22;101081.19;691131;28;1126;-81
2022/04/10 00:01:38;;;;;;;8.85;5.50;;;;;;;4.15;59.50;101073.16;692970;28;1214;-81
2022/04/10 00:01:59;;;;;;;10.35;5.85;;;;;;;4.13;59.74;101069.59;694627;28;1044;-81
2022/04/10 00:02:19;;;;;;;10.20;5.60;;;;;;;4.18;59.41;101083.69;695416;28;1126;-81
2022/04/10 00:02:41;;;;;;;11.27;5.68;;;;;;;4.11;59.57;101072.13;692041;28;1204;-81
2022/04/10 00:03:02;;;;;;;10.00;5.20;;;;;;;4.13;59.55;101080.84;689759;28;1155;-81
2022/04/10 00:03:23;;;;;;;12.32;5.90;;;;;;;4.06;59.34;101073.53;692539;28;1692;-81
2022/04/10 00:03:43;;;;;;;14.38;6.45;;;;;;;4.09;59.46;101074.59;692996;28;1791;-81
2022/04/10 00:04:05;;;;;;;16.65;6.72;;;;;;;4.02;59.62;101077.63;687579;28;965;-81
2022/04/10 00:04:26;;;;;;;15.00;6.07;;;;;;;4.08;59.55;101083.16;692953;28;1238;-81
2022/04/10 00:04:46;;;;;;;12.88;5.60;;;;;;;4.00;59.57;101074.06;693054;28;796;-81
2022/04/10 00:05:08;;;;;;;12.15;6.13;;;;;;;4.03;59.69;101083.66;684787;28;1258;-81
2022/04/10 00:05:29;;;;;;;10.70;6.15;;;;;;;3.97;59.60;101073.84;684825;28;993;-80
2022/04/10 00:05:51;;;;;;;8.45;6.10;;;;;;;3.95;59.78;101085.78;684945;28;914;-80
2022/04/10 00:06:11;;;;;;;6.40;5.68;;;;;;;3.95;60.12;101078.94;684075;28;1017;-82
2022/04/10 00:06:32;;;;;;;8.38;5.90;;;;;;;3.93;60.11;101077.06;684521;28;1108;-80
2022/04/10 00:06:52;;;;;;;9.10;5.80;;;;;;;4.05;60.00;101092.41;684819;28;1774;-79
2022/04/10 00:07:13;;;;;;;10.30;5.80;;;;;;;3.99;60.08;101092.94;684847;28;1163;-79
2022/04/10 00:07:34;;;;;;;8.75;5.55;;;;;;;4.07;60.14;101107.19;684654;28;1775;-79
2022/04/10 00:07:54;;;;;;;7.72;5.60;;;;;;;4.00;60.05;101096.38;685019;28;853;-80
2022/04/10 00:08:16;;;;;;;8.43;5.65;;;;;;;3.97;59.77;101085.09;684859;28;1100;-80
2022/04/10 00:08:36;;;;;;;13.00;6.45;;;;;;;4.01;59.87;101093.00;687605;28;1399;-80
2022/04/10 00:08:59;;;;;;;13.82;6.40;;;;;;;3.96;60.05;101085.88;690284;28;1028;-80
2022/04/10 00:09:20;;;;;;;13.88;6.25;;;;;;;3.97;60.04;101090.25;690030;28;1274;-80
2022/04/10 00:09:40;;;;;;;10.97;6.00;;;;;;;3.95;60.32;101093.53;689660;28;1186;-79
2022/04/10 00:10:02;;;;;;;11.20;6.20;;;;;;;4.01;60.50;101101.66;687567;28;1195;-80
2022/04/10 00:10:22;;;;;;;9.05;6.40;;;;;;;3.90;60.56;101082.94;688300;28;1167;-80
2022/04/10 00:10:44;;;;;;;9.48;6.75;;;;;;;3.97;60.33;101086.75;686758;28;1256;-80
2022/04/10 00:11:05;;;;;;;10.45;7.15;;;;;;;4.02;59.97;101094.78;682787;28;1213;-80
2022/04/10 00:11:26;;;;;;;9.90;6.97;;;;;;;3.96;60.56;101082.41;689380;28;1003;-79
2022/04/10 00:11:46;;;;;;;9.25;6.85;;;;;;;3.93;60.15;101077.06;690235;28;1068;-79
2022/04/10 00:12:07;;;;;;;9.57;6.83;;;;;;;3.95;60.30;101093.53;687254;28;1465;-80
2022/04/10 00:12:28;;;;;;;10.20;6.60;;;;;;;3.94;60.24;101096.91;690176;28;1040;-80
2022/04/10 00:12:49;;;;;;;11.30;6.67;;;;;;;3.94;60.23;101089.16;690265;28;1888;-80
2022/04/10 00:13:10;;;;;;;10.25;6.40;;;;;;;3.95;60.17;101090.94;688013;28;1249;-79
2022/04/10 00:13:30;;;;;;;9.20;6.20;;;;;;;3.91;60.17;101086.38;687406;28;1100;-80
2022/04/10 00:13:51;;;;;;;8.05;6.03;;;;;;;3.91;60.47;101088.97;692704;28;1356;-80
2022/04/10 00:14:11;;;;;;;8.93;5.93;;;;;;;3.95;60.34;101101.28;690096;28;1968;-79
2022/04/10 00:14:32;;;;;;;9.30;6.30;;;;;;;3.91;60.29;101089.88;687452;28;1147;-79
2022/04/10 00:14:53;;;;;;;9.50;6.20;;;;;;;3.94;60.38;101094.34;687291;28;872;-80
2022/04/10 00:15:14;;;;;;;8.65;6.00;;;;;;;3.99;60.38;101111.00;686191;28;1281;-80
2022/04/10 00:15:36;;;;;;;9.60;6.20;;;;;;;4.09;60.12;101109.84;687066;28;1505;-80
2022/04/10 00:15:56;;;;;;;10.07;6.32;;;;;;;4.00;60.47;101084.38;688246;28;776;-80
2022/04/10 00:16:17;;;;;;;9.30;6.33;;;;;;;4.00;60.18;101094.72;683565;28;1175;-80
2022/04/10 00:16:37;;;;;;;8.32;5.90;;;;;;;3.99;60.12;101094.63;684941;28;1007;-80
2022/04/10 00:16:58;;;;;;;11.18;5.70;;;;;;;3.97;60.68;101092.84;682208;29;1139;-80
2022/04/10 00:17:19;;;;;;;11.13;5.63;;;;;;;3.98;60.10;101091.13;681882;29;1254;-80
2022/04/10 00:17:39;;;;;;;10.93;5.88;;;;;;;4.01;60.03;101099.06;687384;28;1141;-79
2022/04/10 00:18:00;;;;;;;8.77;6.10;;;;;;;3.93;60.24;101097.72;687425;28;835;-79
2022/04/10 00:18:21;;;;;;;10.77;6.47;;;;;;;3.94;60.10;101095.22;691814;28;1233;-80
2022/04/10 00:18:41;;;;;;;10.23;6.27;;;;;;;3.94;60.20;101099.50;687801;28;1679;-80
2022/04/10 00:19:04;;;;;;;11.93;6.20;;;;;;;3.87;60.13;101089.59;690213;28;929;-80
2022/04/10 00:19:43;;;;;;;9.55;6.13;;;;;;;3.95;60.25;101097.03;687390;28;1187;-80
2022/04/10 00:20:05;;;;;;;8.50;6.18;;;;;;;3.93;60.40;101093.44;687491;28;1202;-80
2022/04/10 00:20:26;;;;;;;9.38;6.20;;;;;;;3.96;60.01;101090.16;688356;28;1104;-80
2022/04/10 00:20:47;;;;;;;9.60;6.30;;;;;;;3.98;60.05;101088.53;682347;29;824;-80
2022/04/10 00:21:07;;;;;;;11.35;6.78;;;;;;;3.95;60.16;101090.94;682129;28;1455;-80
2022/04/10 00:21:28;;;;;;;13.73;6.80;;;;;;;3.94;59.91;101100.38;684795;28;1156;-79
2022/04/10 00:21:49;;;;;;;12.70;6.67;;;;;;;3.93;60.00;101097.72;687267;28;1058;-80
2022/04/10 00:22:09;;;;;;;10.63;6.28;;;;;;;3.88;59.76;101093.97;685366;28;1229;-80
2022/04/10 00:22:30;;;;;;;9.32;5.95;;;;;;;3.87;60.08;101090.50;682081;29;1011;-79
2022/04/10 00:22:51;;;;;;;10.00;6.43;;;;;;;3.87;60.11;101094.75;681801;29;756;-80
2022/04/10 00:23:12;;;;;;;9.77;6.22;;;;;;;3.88;60.20;101104.28;686530;28;1327;-80
2022/04/10 00:23:32;;;;;;;8.90;6.20;;;;;;;3.89;60.19;101106.97;686629;28;1711;-80
2022/04/10 00:23:53;;;;;;;7.60;5.70;;;;;;;3.90;60.44;101106.16;690169;28;1156;-81
2022/04/10 00:24:14;;;;;;;8.70;5.90;;;;;;;3.87;60.11;101094.75;687464;28;1211;-81
2022/04/10 00:24:34;;;;;;;9.73;5.90;;;;;;;3.89;60.41;101112.13;684779;28;974;-82
2022/04/10 00:24:55;;;;;;;9.52;5.90;;;;;;;3.80;60.23;101091.81;684891;28;1218;-81
2022/04/10 00:25:18;;;;;;;8.75;5.95;;;;;;;3.91;60.09;101109.63;685820;28;1347;-82
2022/04/10 00:25:38;;;;;;;9.23;6.10;;;;;;;3.82;60.28;101100.53;687276;28;1594;-82
2022/04/10 00:25:59;;;;;;;13.55;6.45;;;;;;;3.87;60.60;101098.25;687587;28;1161;-82
2022/04/10 00:26:20;;;;;;;14.00;6.60;;;;;;;3.99;60.61;101108.44;684690;28;1303;-81
2022/04/10 00:26:40;;;;;;;13.60;6.60;;;;;;;4.01;60.63;101113.66;687546;28;1139;-82
2022/04/10 00:27:01;;;;;;;11.93;6.40;;;;;;;3.93;60.44;101098.59;690243;28;1264;-82
2022/04/10 00:27:22;;;;;;;12.48;6.43;;;;;;;3.94;60.14;101104.66;692775;28;1181;-81
2022/04/10 00:27:43;;;;;;;12.60;6.40;;;;;;;3.90;60.08;101107.84;692617;28;1828;-82
2022/04/10 00:28:04;;;;;;;13.18;6.22;;;;;;;3.89;60.08;101101.81;687423;28;1032;-82
2022/04/10 00:28:24;;;;;;;11.82;6.38;;;;;;;3.92;60.23;101095.94;684822;28;1313;-82
2022/04/10 00:28:45;;;;;;;10.87;6.20;;;;;;;3.89;60.29;101096.66;687552;28;1833;-83
2022/04/10 00:29:05;;;;;;;9.65;6.35;;;;;;;3.87;60.60;101097.34;690148;28;1220;-82
2022/04/10 00:29:26;;;;;;;10.52;6.00;;;;;;;3.92;60.42;101098.53;687227;28;1277;-81
2022/04/10 00:29:47;;;;;;;10.53;6.10;;;;;;;3.92;60.66;101093.38;687091;28;858;-81
2022/04/10 00:30:09;;;;;;;9.98;6.00;;;;;;;3.93;60.47;101097.72;684887;28;1142;-82
2022/04/10 00:30:32;;;;;;;8.77;6.00;;;;;;;3.93;60.11;101097.72;692841;28;1196;-81
2022/04/10 00:30:52;;;;;;;10.20;6.05;;;;;;;3.88;60.34;101099.13;687328;28;1157;-82
2022/04/10 00:31:13;;;;;;;12.15;5.68;;;;;;;3.92;60.51;101098.53;687447;28;1209;-81
2022/04/10 00:31:34;;;;;;;12.68;5.90;;;;;;;3.92;60.47;101101.09;684700;28;1755;-81
2022/04/10 00:31:55;;;;;;;10.40;5.97;;;;;;;3.89;60.71;101103.47;690258;28;874;-81
2022/04/10 00:32:15;;;;;;;7.88;5.97;;;;;;;3.84;60.27;101100.63;688711;28;1274;-82
2022/04/10 00:32:37;;;;;;;9.25;5.88;;;;;;;3.92;60.22;101116.59;691853;28;1225;-81
2022/04/10 00:32:58;;;;;;;10.23;6.00;;;;;;;3.85;60.49;101096.38;692532;28;1630;-82
2022/04/10 00:33:19;;;;;;;10.57;6.40;;;;;;;3.86;60.30;101104.19;688500;28;1146;-82
2022/04/10 00:33:40;;;;;;;13.00;6.77;;;;;;;3.96;60.30;101126.31;692803;28;1411;-82
2022/04/10 00:34:00;;;;;;;12.10;6.72;;;;;;;3.89;60.17;101116.41;693092;28;693;-81
2022/04/10 00:34:21;;;;;;;11.10;6.28;;;;;;;3.79;60.16;101105.50;693334;28;1989;-82
2022/04/10 00:34:42;;;;;;;7.18;5.82;;;;;;;3.78;60.11;101098.56;690288;28;1579;-82
2022/04/10 00:35:05;;;;;;;6.95;5.50;;;;;;;3.82;60.40;101110.84;690107;28;1387;-81
2022/04/10 00:35:26;;;;;;;8.93;5.80;;;;;;;3.75;60.05;101103.56;687510;28;1339;-81
2022/04/10 00:35:46;;;;;;;10.13;5.70;;;;;;;3.75;60.33;101107.81;687668;28;736;-81
2022/04/10 00:36:07;;;;;;;12.47;5.77;;;;;;;3.78;60.75;101108.91;684970;28;1240;-82
2022/04/10 00:36:27;;;;;;;9.80;5.38;;;;;;;3.82;60.79;101113.44;687368;28;1387;-80
2022/04/10 00:36:48;;;;;;;9.07;5.30;;;;;;;3.80;60.87;101112.47;685038;28;950;-80
2022/04/10 00:37:09;;;;;;;9.27;5.10;;;;;;;3.81;60.77;101106.50;684936;28;1135;-80
2022/04/10 00:37:30;;;;;;;10.75;5.30;;;;;;;3.79;60.54;101099.44;687646;28;920;-82
2022/04/10 00:37:50;;;;;;;9.68;5.20;;;;;;;3.74;60.20;101101.75;687578;28;1255;-82
2022/04/10 00:38:11;;;;;;;9.00;5.47;;;;;;;3.81;60.20;101114.25;687442;28;1453;-82
2022/04/10 00:38:32;;;;;;;8.95;5.65;;;;;;;3.70;60.59;101104.97;684336;28;1328;-82
2022/04/10 00:38:52;;;;;;;11.13;6.07;;;;;;;3.68;60.73;101104.84;687692;28;834;-82
2022/04/10 00:39:13;;;;;;;11.40;5.90;;;;;;;3.70;60.31;101104.97;686495;28;1045;-82
2022/04/10 00:39:34;;;;;;;12.53;6.17;;;;;;;3.68;60.23;101111.72;684481;28;962;-82
2022/04/10 00:39:54;;;;;;;12.13;6.20;;;;;;;3.67;60.70;101103.06;689058;28;787;-82
2022/04/10 00:40:15;;;;;;;11.13;6.30;;;;;;;3.74;60.70;101122.41;690385;28;1182;-82
2022/04/10 00:40:35;;;;;;;10.57;6.05;;;;;;;3.76;60.51;101126.00;684949;28;1068;-81
2022/04/10 00:40:56;;;;;;;10.00;5.90;;;;;;;3.67;60.75;101107.31;684904;28;1182;-82
2022/04/10 00:41:16;;;;;;;11.75;5.90;;;;;;;3.70;60.32;101115.28;685729;28;1170;-82
2022/04/10 00:41:37;;;;;;;12.20;5.95;;;;;;;3.72;60.92;101115.38;687335;28;1544;-82
2022/04/10 00:41:57;;;;;;;12.53;6.40;;;;;;;3.71;60.48;101109.31;687568;28;1604;-82
2022/04/10 00:42:18;;;;;;;10.77;6.40;;;;;;;3.75;60.64;101119.06;691783;28;1293;-82
2022/04/10 00:42:41;;;;;;;10.90;6.80;;;;;;;3.69;60.71;101110.91;689898;28;1488;-82
2022/04/10 00:43:02;;;;;;;11.10;6.80;;;;;;;3.72;60.36;101116.25;685571;28;1899;-82
2022/04/10 00:43:32;;;;;;;12.40;7.30;;;;;;;3.68;60.62;101122.06;684852;28;1295;-80
2022/04/10 00:44:10;;;;;;;12.57;6.78;;;;;;;3.73;60.57;101119.75;685833;28;1692;-80
2022/04/10 00:44:33;;;;;;;9.38;6.05;;;;;;;3.63;60.16;101108.88;688393;28;1015;-80
2022/04/10 00:44:54;;;;;;;8.68;6.10;;;;;;;3.61;61.02;101104.41;691862;28;783;-80
2022/04/10 00:45:16;;;;;;;8.27;5.90;;;;;;;3.55;60.58;101105.78;691522;28;1123;-80
2022/04/10 00:45:36;;;;;;;9.02;5.90;;;;;;;3.47;60.78;101106.09;693095;28;1391;-80
2022/04/10 00:45:57;;;;;;;7.60;5.77;;;;;;;3.54;60.81;101114.34;693108;28;1662;-80
2022/04/10 00:46:18;;;;;;;7.60;6.03;;;;;;;3.62;61.35;101121.66;689915;28;1485;-82
2022/04/10 00:46:39;;;;;;;8.00;6.00;;;;;;;3.60;60.90;101112.94;684939;28;1491;-81
2022/04/10 00:47:00;;;;;;;10.18;6.40;;;;;;;3.58;60.80;101109.34;682315;29;1203;-82
2022/04/10 00:47:21;;;;;;;11.05;6.40;;;;;;;3.68;61.25;101116.88;686725;28;1147;-82
2022/04/10 00:47:44;;;;;;;9.33;6.30;;;;;;;3.67;60.75;101104.75;687702;28;764;-82
2022/04/10 00:48:05;;;;;;;9.55;5.93;;;;;;;3.65;61.12;101106.34;687472;28;1097;-82
2022/04/10 00:48:25;;;;;;;9.73;6.38;;;;;;;3.63;61.37;101108.88;690089;28;1172;-81
2022/04/10 00:48:46;;;;;;;10.60;6.50;;;;;;;3.65;61.09;101111.50;693813;28;775;-82
2022/04/10 00:49:08;;;;;;;10.57;6.68;;;;;;;3.68;60.97;101111.72;692521;28;1173;-81
2022/04/10 00:49:29;;;;;;;11.05;6.25;;;;;;;3.70;60.87;101111.00;691741;28;1027;-80
2022/04/10 00:49:50;;;;;;;9.70;6.17;;;;;;;3.63;61.04;101102.78;684854;28;1149;-80
2022/04/10 00:50:12;;;;;;;7.95;5.95;;;;;;;3.66;61.23;101119.34;685614;28;1194;-80
2022/04/10 00:50:33;;;;;;;8.52;6.20;;;;;;;3.68;60.74;101117.75;684995;28;1209;-79
2022/04/10 00:51:44;;;;;;;10.55;6.60;;;;;;;3.64;60.41;101117.47;691023;28;1037;-79
2022/04/10 00:52:08;;;;;;;11.70;6.88;;;;;;;3.65;60.73;101109.84;690222;28;2059;-81
2022/04/10 00:52:29;;;;;;;15.15;7.05;;;;;;;3.67;60.58;101120.22;687284;28;1330;-80
2022/04/10 00:52:50;;;;;;;16.08;7.00;;;;;;;3.67;60.87;101115.06;687498;28;1254;-80
2022/04/10 00:53:12;;;;;;;13.13;6.85;;;;;;;3.62;61.22;101106.19;684779;28;1457;-80
2022/04/10 00:53:32;;;;;;;11.40;6.80;;;;;;;3.65;61.06;101111.50;687847;28;1508;-80
2022/04/10 00:53:54;;;;;;;11.67;6.90;;;;;;;3.65;61.08;101116.69;690292;28;1730;-80
2022/04/10 00:54:25;;;;;;;13.52;6.82;;;;;;;3.61;60.61;101109.56;690197;28;1914;-80
2022/04/10 00:54:46;;;;;;;10.88;6.43;;;;;;;3.60;60.93;101112.94;692592;28;1485;-82
2022/04/10 00:55:07;;;;;;;8.90;6.40;;;;;;;3.61;60.89;101119.88;690085;28;1155;-83
2022/04/10 00:55:28;;;;;;;8.50;6.20;;;;;;;3.70;60.55;101133.34;684870;28;937;-82
2022/04/10 00:55:49;;;;;;;8.48;6.00;;;;;;;3.58;61.04;101114.50;687537;28;1065;-82
2022/04/10 00:56:10;;;;;;;8.95;6.10;;;;;;;3.61;60.67;101119.88;690634;28;1106;-82
2022/04/10 00:56:31;;;;;;;10.10;6.22;;;;;;;3.60;60.63;101118.97;687672;28;1005;-82
2022/04/10 00:56:55;;;;;;;9.15;6.32;;;;;;;3.63;60.78;101123.44;688268;28;882;-82
2022/04/10 00:57:17;;;;;;;9.52;6.40;;;;;;;3.59;60.92;101127.53;690370;28;1135;-82
2022/04/10 00:57:38;;;;;;;12.15;6.68;;;;;;;3.53;61.07;101120.28;690367;28;783;-82
2022/04/10 00:57:58;;;;;;;13.02;7.03;;;;;;;3.53;60.93;101107.38;688682;28;1140;-82
2022/04/10 00:58:19;;;;;;;11.90;6.60;;;;;;;3.55;61.05;101116.13;688393;28;1271;-82
2022/04/10 00:58:41;;;;;;;8.35;6.30;;;;;;;3.56;60.80;101120.47;691241;28;1725;-82
2022/04/10 00:59:02;;;;;;;8.93;6.47;;;;;;;3.51;60.81;101118.41;693002;28;1327;-82
2022/04/10 00:59:23;;;;;;;10.98;6.38;;;;;;;3.56;60.59;101127.34;689972;28;1154;-81
2022/04/10 00:59:43;;;;;;;11.35;6.88;;;;;;;3.61;60.72;101125.03;692380;28;1551;-82
2022/04/10 01:00:08;;;;;;;10.40;6.63;;;;;;;3.59;61.00;101127.53;690416;28;1156;-82
2022/04/10 01:00:28;;;;;;;7.85;6.90;;;;;;;3.51;61.28;101113.25;692817;28;1797;-82
2022/04/10 01:00:49;;;;;;;7.65;6.85;;;;;;;3.51;61.26;101123.56;692891;28;1698;-82
2022/04/10 01:01:10;;;;;;;7.57;6.88;;;;;;;3.53;61.05;101106.47;689777;28;1151;-81
2022/04/10 01:01:32;;;;;;;7.53;6.77;;;;;;;3.57;61.20;101118.78;690167;28;1305;-82
2022/04/10 01:01:53;;;;;;;7.85;6.70;;;;;;;3.54;61.22;101108.25;689551;28;1288;-82
2022/04/10 01:02:13;;;;;;;7.93;6.47;;;;;;;3.56;60.83;101117.88;692818;28;1075;-82
2022/04/10 01:02:34;;;;;;;8.25;6.25;;;;;;;3.61;61.00;101125.03;689953;28;1484;-82
2022/04/10 01:02:55;;;;;;;9.13;6.30;;;;;;;3.56;60.79;101114.44;687424;28;834;-82
2022/04/10 01:03:15;;;;;;;7.87;6.20;;;;;;;3.53;60.85;101115.13;686195;28;1116;-82
2022/04/10 01:03:36;;;;;;;9.10;6.40;;;;;;;3.45;60.98;101108.59;684776;28;1402;-82
2022/04/10 01:03:56;;;;;;;10.02;6.50;;;;;;;3.46;60.91;101102.66;687500;28;1337;-82
2022/04/10 01:04:17;;;;;;;12.97;6.67;;;;;;;3.49;60.76;101107.97;692240;28;1164;-82
2022/04/10 01:04:38;;;;;;;14.38;6.53;;;;;;;3.48;60.94;101110.50;693138;28;1039;-82
2022/04/10 01:04:58;;;;;;;13.57;6.50;;;;;;;3.47;60.83;101114.75;687637;28;1386;-82
2022/04/10 01:05:19;;;;;;;11.65;6.50;;;;;;;3.47;61.07;101121.56;687423;28;1147;-82
2022/04/10 01:05:41;;;;;;;11.77;6.70;;;;;;;3.47;61.34;101116.41;692983;28;869;-81
2022/04/10 01:06:03;;;;;;;11.20;6.40;;;;;;;3.49;61.05;101114.84;687170;28;1084;-82
2022/04/10 01:06:24;;;;;;;13.15;6.63;;;;;;;3.51;61.16;101127.06;687479;28;1073;-82
2022/04/10 01:06:50;;;;;;;11.68;6.57;;;;;;;3.47;61.65;101111.25;684923;28;1454;-82
2022/04/10 01:07:13;;;;;;;9.82;6.45;;;;;;;3.55;61.12;101117.78;693036;28;1150;-82
2022/04/10 01:07:37;;;;;;;9.90;6.40;;;;;;;3.58;61.17;101119.66;694483;28;1928;-82
2022/04/10 01:07:58;;;;;;;11.02;6.65;;;;;;;3.60;61.56;101112.94;690315;28;1173;-82
2022/04/10 01:08:19;;;;;;;11.43;6.93;;;;;;;3.62;61.25;101117.38;690016;28;1198;-81
2022/04/10 01:08:40;;;;;;;9.68;6.57;;;;;;;3.64;61.44;101125.22;687571;28;862;-82
2022/04/10 01:09:02;;;;;;;8.65;6.20;;;;;;;3.56;61.05;101107.56;685002;28;799;-82
2022/04/10 01:09:40;;;;;;;15.65;6.20;;;;;;;3.66;61.17;101124.53;684258;28;1209;-82
2022/04/10 01:10:01;;;;;;;16.85;6.30;;;;;;;3.59;60.94;101105.97;685127;28;769;-82
2022/04/10 01:10:23;;;;;;;11.90;6.47;;;;;;;3.62;61.34;101117.38;690196;28;1195;-81
2022/04/10 01:10:44;;;;;;;10.60;6.22;;;;;;;3.56;61.24;101104.13;693283;28;1701;-82
2022/04/10 01:11:06;;;;;;;9.70;6.38;;;;;;;3.64;60.77;101120.97;693012;28;1221;-82
2022/04/10 01:11:28;;;;;;;8.95;6.05;;;;;;;3.60;61.16;101123.25;690108;28;1801;-82
2022/04/10 01:11:48;;;;;;;8.85;6.07;;;;;;;3.53;61.03;101109.97;687568;28;1262;-82
2022/04/10 01:12:11;;;;;;;9.75;5.97;;;;;;;3.55;61.24;101117.78;687496;28;1135;-82
2022/04/10 01:12:34;;;;;;;12.82;6.22;;;;;;;3.51;60.78;101108.09;692842;28;1524;-82
2022/04/10 01:13:00;;;;;;;12.70;6.30;;;;;;;3.59;60.90;101121.44;693002;28;1328;-82
2022/04/10 01:13:20;;;;;;;13.23;6.28;;;;;;;3.58;61.04;101115.41;687193;28;1520;-82
2022/04/10 01:13:41;;;;;;;10.70;6.88;;;;;;;3.55;61.15;101115.19;690240;28;1429;-81
2022/04/10 01:14:04;;;;;;;12.30;7.00;;;;;;;3.53;60.89;101111.66;693009;28;1210;-80
2022/04/10 01:14:25;;;;;;;10.40;6.72;;;;;;;3.63;60.74;101123.44;690046;28;1906;-80
2022/04/10 01:14:46;;;;;;;10.23;6.45;;;;;;;3.57;61.04;101118.78;687689;28;839;-80
2022/04/10 01:15:09;;;;;;;9.02;6.07;;;;;;;3.59;60.98;101116.28;682308;28;1265;-80
2022/04/10 01:15:34;;;;;;;14.95;6.38;;;;;;;3.55;61.40;101116.13;689929;28;1341;-80
2022/04/10 01:15:55;;;;;;;15.80;6.45;;;;;;;3.58;61.18;101110.25;687824;28;858;-80
2022/04/10 01:16:16;;;;;;;15.02;6.60;;;;;;;3.57;61.36;101116.22;692981;28;1182;-80
2022/04/10 01:16:37;;;;;;;12.10;6.35;;;;;;;3.64;61.02;101126.13;693097;28;823;-80
2022/04/10 01:16:59;;;;;;;10.63;6.07;;;;;;;3.63;61.23;101121.78;695858;28;799;-81
2022/04/10 01:17:21;;;;;;;10.00;5.80;;;;;;;3.58;61.26;101122.25;694779;28;1123;-82
2022/04/10 01:17:45;;;;;;;9.02;6.05;;;;;;;3.64;60.66;101130.38;690422;28;1449;-82
2022/04/10 01:18:06;;;;;;;10.18;6.25;;;;;;;3.52;60.79;101121.09;689462;28;1169;-82
2022/04/10 01:18:27;;;;;;;12.55;6.38;;;;;;;3.47;60.83;101112.16;692723;28;1897;-82
2022/04/10 01:18:51;;;;;;;12.60;6.07;;;;;;;3.49;60.60;101113.13;690495;28;791;-82
2022/04/10 01:19:15;;;;;;;12.90;5.90;;;;;;;3.50;61.08;101114.03;688012;28;1825;-82
2022/04/10 01:19:38;;;;;;;8.48;5.63;;;;;;;3.54;61.17;101128.91;686313;28;1490;-82
2022/04/10 01:19:59;;;;;;;10.25;5.75;;;;;;;3.45;61.19;101100.84;688301;28;1805;-82
2022/04/10 01:20:21;;;;;;;12.80;6.18;;;;;;;3.53;61.14;101119.38;685231;28;1139;-82
2022/04/10 01:20:45;;;;;;;12.30;6.15;;;;;;;3.49;61.01;101120.88;687963;28;1386;-82
2022/04/10 01:21:07;;;;;;;9.83;6.23;;;;;;;3.55;61.08;101121.28;687997;28;1249;-82
2022/04/10 01:21:39;;;;;;;7.95;5.80;;;;;;;3.56;61.33;101123.06;685353;28;1339;-82
2022/04/10 01:22:04;;;;;;;9.80;6.65;;;;;;;3.58;61.28;101122.25;685400;28;768;-82
2022/04/10 01:22:35;;;;;;;9.20;6.57;;;;;;;3.64;60.96;101130.38;684959;28;1298;-81
2022/04/10 01:22:56;;;;;;;10.02;6.20;;;;;;;3.52;60.86;101115.94;688031;28;849;-82
2022/04/10 01:23:17;;;;;;;13.55;6.95;;;;;;;3.56;61.17;101117.88;689301;28;1730;-82
2022/04/10 01:23:38;;;;;;;14.23;6.93;;;;;;;3.61;61.06;101114.72;690695;28;873;-82
2022/04/10 01:24:00;;;;;;;11.50;6.75;;;;;;;3.51;61.12;101109.00;685351;28;935;-82
2022/04/10 01:24:20;;;;;;;11.52;6.25;;;;;;;3.54;61.15;101114.34;685180;28;1248;-82
2022/04/10 01:24:43;;;;;;;12.43;6.18;;;;;;;3.58;61.12;101124.84;684650;28;1366;-82
2022/04/10 01:25:08;;;;;;;13.65;6.30;;;;;;;3.58;61.00;101120.56;685393;28;1160;-80
2022/04/10 01:25:31;;;;;;;12.00;6.05;;;;;;;3.55;61.24;101120.38;690718;28;1760;-80
2022/04/10 01:25:53;;;;;;;12.88;6.03;;;;;;;3.51;61.09;101121.91;690697;28;1137;-80
2022/04/10 01:26:13;;;;;;;13.13;6.28;;;;;;;3.61;61.03;101125.03;692553;28;1433;-80
2022/04/10 01:26:34;;;;;;;12.45;6.68;;;;;;;3.56;61.48;101125.63;693444;28;1071;-80
2022/04/10 01:26:54;;;;;;;11.63;6.90;;;;;;;3.51;60.97;101111.56;692827;28;795;-80
2022/04/10 01:27:18;;;;;;;12.93;6.82;;;;;;;3.63;61.45;101129.50;690551;28;1943;-80
2022/04/10 01:27:40;;;;;;;13.40;7.00;;;;;;;3.55;61.25;101116.13;690958;28;1804;-80
2022/04/10 01:28:09;;;;;;;11.57;6.70;;;;;;;3.62;61.28;101113.91;688161;28;1330;-80
2022/04/10 01:28:30;;;;;;;7.82;5.63;;;;;;;3.62;61.29;101116.50;687031;28;1131;-80
2022/04/10 01:29:11;;;;;;;8.20;5.70;;;;;;;3.72;61.49;101133.44;689111;28;1080;-80
2022/04/10 01:29:33;;;;;;;11.40;6.50;;;;;;;3.66;61.25;101115.88;687113;28;1225;-80
2022/04/10 01:29:53;;;;;;;13.50;6.55;;;;;;;3.67;61.21;101110.81;685143;28;1096;-80
2022/04/10 01:30:15;;;;;;;12.95;6.70;;;;;;;3.69;61.15;101116.97;685090;28;1078;-80
2022/04/10 01:30:38;;;;;;;14.43;6.20;;;;;;;3.67;61.24;101115.06;687931;28;1439;-80
2022/04/10 01:30:58;;;;;;;9.80;5.72;;;;;;;3.70;61.61;101123.03;690786;28;898;-80
2022/04/10 01:31:19;;;;;;;8.73;5.70;;;;;;;3.70;61.09;101118.72;693268;28;1187;-79
2022/04/10 01:31:43;;;;;;;7.90;5.60;;;;;;;3.75;61.54;101124.22;685437;28;836;-80
2022/04/10 01:32:04;;;;;;;11.68;6.13;;;;;;;3.75;61.26;101126.78;690760;28;1272;-80
2022/04/10 01:32:25;;;;;;;11.80;6.25;;;;;;;3.81;61.23;101131.44;689839;28;1623;-80
2022/04/10 01:32:46;;;;;;;12.10;6.40;;;;;;;3.72;61.07;101129.16;690824;28;858;-80
2022/04/10 01:33:06;;;;;;;9.50;6.30;;;;;;;3.69;61.33;101119.53;696273;28;990;-80
2022/04/10 01:33:27;;;;;;;9.48;6.63;;;;;;;3.69;60.96;101118.66;694564;28;1111;-80
2022/04/10 01:33:50;;;;;;;8.05;6.70;;;;;;;3.64;61.25;101125.22;685252;28;1275;-80
2022/04/10 01:34:16;;;;;;;9.93;7.05;;;;;;;3.64;61.70;101123.53;688017;28;1139;-80
2022/04/10 01:34:37;;;;;;;9.80;6.40;;;;;;;3.71;61.25;101132.56;685391;28;875;-80
2022/04/10 01:35:00;;;;;;;8.48;6.20;;;;;;;3.70;61.69;101120.44;685406;28;847;-80
2022/04/10 01:35:24;;;;;;;7.93;5.63;;;;;;;3.61;61.62;101119.88;686301;28;1217;-80
2022/04/10 01:35:45;;;;;;;9.75;5.90;;;;;;;3.67;61.75;101126.31;685312;28;1244;-80
2022/04/10 01:36:09;;;;;;;10.45;5.90;;;;;;;3.70;61.48;101118.72;688334;28;1170;-79
2022/04/10 01:36:30;;;;;;;13.25;6.68;;;;;;;3.75;61.78;101119.06;693190;28;1093;-80
2022/04/10 01:36:51;;;;;;;13.18;7.25;;;;;;;3.77;61.71;101127.78;690849;28;886;-80
2022/04/10 01:37:15;;;;;;;12.55;7.35;;;;;;;3.79;61.76;101115.84;691490;28;1118;-80
2022/04/10 01:37:39;;;;;;;8.23;6.60;;;;;;;3.88;61.31;101133.59;687772;28;898;-80
2022/04/10 01:38:05;;;;;;;7.03;6.15;;;;;;;3.97;61.22;101133.25;687822;28;1064;-80
2022/04/10 01:38:32;;;;;;;9.25;6.47;;;;;;;3.89;61.12;101124.13;685237;28;1100;-83
2022/04/10 01:38:57;;;;;;;12.25;6.68;;;;;;;3.94;61.38;101133.06;687679;28;1653;-80
2022/04/10 01:39:20;;;;;;;10.77;6.30;;;;;;;3.90;60.98;101120.75;686770;28;1219;-80
2022/04/10 01:39:43;;;;;;;12.77;6.28;;;;;;;3.88;61.34;101124.94;684738;28;1289;-80
2022/04/10 01:40:05;;;;;;;13.60;6.32;;;;;;;3.85;60.91;101125.66;682802;29;1161;-80
2022/04/10 01:40:26;;;;;;;14.25;6.55;;;;;;;3.93;60.79;101136.47;685224;28;1230;-80
2022/04/10 01:40:47;;;;;;;12.40;6.13;;;;;;;3.85;61.07;101123.06;682780;28;796;-80
2022/04/10 01:41:13;;;;;;;10.15;5.95;;;;;;;3.79;61.35;101126.16;685208;28;1163;-80
2022/04/10 01:41:36;;;;;;;9.65;5.90;;;;;;;3.80;61.57;101127.06;689796;28;1065;-80
2022/04/10 01:41:57;;;;;;;11.15;6.00;;;;;;;3.73;61.26;101120.63;688062;28;843;-80
2022/04/10 01:42:18;;;;;;;11.95;6.30;;;;;;;3.77;61.79;101127.78;685125;28;1158;-80
2022/04/10 01:42:39;;;;;;;12.93;6.10;;;;;;;3.81;61.25;101129.72;687955;28;1726;-80
2022/04/10 01:43:00;;;;;;;12.05;6.40;;;;;;;3.80;61.45;101109.88;690601;28;1069;-80
2022/04/10 01:43:21;;;;;;;14.02;6.60;;;;;;;3.76;61.22;101125.09;690463;28;1214;-80
2022/04/10 01:43:46;;;;;;;12.65;6.30;;;;;;;3.82;61.48;101139.25;688004;28;1506;-80
2022/04/10 01:44:08;;;;;;;12.10;6.60;;;;;;;3.64;61.67;101114.91;688009;28;1154;-80
2022/04/10 01:44:28;;;;;;;10.05;6.28;;;;;;;3.72;61.63;101120.56;682074;28;1660;-80
2022/04/10 01:44:49;;;;;;;11.57;6.25;;;;;;;3.82;61.35;101121.19;692717;28;1124;-80
2022/04/10 01:45:12;;;;;;;9.70;5.82;;;;;;;3.81;61.46;101118.53;692493;28;1696;-80
2022/04/10 01:45:34;;;;;;;8.07;5.90;;;;;;;3.87;61.26;101123.16;688005;28;1104;-80
2022/04/10 01:45:55;;;;;;;7.13;6.15;;;;;;;3.88;61.53;101130.09;685388;28;780;-79